Cold Bay, Alaska
Current Conditions -  °F | °C
As of 6:53 PM on Friday 19 Dec 2014 (Local Time) from PACD Reporting Station
Clear Clear  
Wind Chill: 35°   Ceiling: Unl
Heat Index: 35°   Visibility: 10mi
Dew Point: 33°   Wind: 3mph
Humidity: 92%   Direction: 320°NW
Pressure: 28.77"   Gusts: NA
Location:  55.18°N, 162.72°W
Report Text: PACD 200353Z AUTO 32003KT 10SM CLR 02/01 A2877 RMK AO2 SLP744 T00170006 TSNO
Loading
Personal Weather Stations






























Interactive Weather Map New forecast layout! Learn more

10-Day Weather Forecast

Advertisements
Track Severe Weather on mobile